createdAt,value
2023-02-16T00:00:21.380Z,44.4
2023-02-16T00:05:39.651Z,44.2
2023-02-16T00:10:58.186Z,44.5
2023-02-16T00:16:16.775Z,44.4
2023-02-16T00:21:35.650Z,44.6
2023-02-16T00:26:54.456Z,43.8
2023-02-16T00:32:12.896Z,43.8
2023-02-16T00:37:31.802Z,44.7
2023-02-16T00:42:50.278Z,43.8
2023-02-16T00:48:08.733Z,44.2
2023-02-16T00:53:27.511Z,43.6
2023-02-16T00:58:45.746Z,43.9
2023-02-16T01:04:04.592Z,44.4
2023-02-16T01:09:22.863Z,43.9
2023-02-16T01:14:42.567Z,44.2
2023-02-16T01:20:00.751Z,43.7
2023-02-16T01:25:19.515Z,44.1
2023-02-16T01:30:38.189Z,44.1
2023-02-16T01:35:56.641Z,44.5
2023-02-16T01:41:15.120Z,44.5
2023-02-16T01:46:34.361Z,43.9
2023-02-16T01:51:52.283Z,44.1
2023-02-16T01:57:10.826Z,43.8
2023-02-16T02:02:29.162Z,44.2
2023-02-16T02:07:47.620Z,44.4
2023-02-16T02:13:06.199Z,44.3
2023-02-16T02:18:24.784Z,43.7
2023-02-16T02:23:42.975Z,44.4
2023-02-16T02:29:01.492Z,43.2
2023-02-16T02:34:20.026Z,43.5
2023-02-16T02:39:38.584Z,43.8
2023-02-16T02:44:57.345Z,43.4
2023-02-16T02:50:15.610Z,44.4
2023-02-16T02:55:34.088Z,44
2023-02-16T03:00:52.431Z,44
2023-02-16T03:06:11.232Z,44.1
2023-02-16T03:11:29.419Z,44.1
2023-02-16T03:16:48.283Z,43.4
2023-02-16T03:22:06.565Z,43.6
2023-02-16T03:27:25.059Z,44.2
2023-02-16T03:32:43.263Z,44.4
2023-02-16T03:38:02.093Z,43.7
2023-02-16T03:43:20.306Z,43.8
2023-02-16T03:48:38.493Z,44
2023-02-16T03:53:56.780Z,44.1
2023-02-16T03:59:15.264Z,44.5
2023-02-16T04:04:34.258Z,43.7
2023-02-16T04:09:53.244Z,43.8
2023-02-16T04:15:11.468Z,44
2023-02-16T04:20:30.284Z,43.5
2023-02-16T04:25:48.505Z,44.2
2023-02-16T04:31:08.669Z,44.6
2023-02-16T04:36:26.948Z,44.4
2023-02-16T04:41:45.984Z,43.7
2023-02-16T04:47:04.299Z,44.1
2023-02-16T04:52:22.793Z,43
2023-02-16T04:57:41.357Z,43.6
2023-02-16T05:02:59.657Z,43.6
2023-02-16T05:08:21.484Z,43
2023-02-16T05:13:42.991Z,43.1
2023-02-16T05:19:01.463Z,43.1
2023-02-16T05:24:20.168Z,43.8
2023-02-16T05:29:38.667Z,43.6
2023-02-16T05:34:57.173Z,43.2
2023-02-16T05:40:15.671Z,44.1
2023-02-16T05:45:34.247Z,43.6
2023-02-16T05:50:52.912Z,43.4
2023-02-16T05:56:11.406Z,43
2023-02-16T06:01:14.235Z,43.5
2023-02-16T06:06:32.726Z,42.7
2023-02-16T06:11:50.666Z,42.7
2023-02-16T06:17:08.933Z,42.5
2023-02-16T06:22:27.403Z,43.1
2023-02-16T06:27:46.695Z,42.2
2023-02-16T06:33:04.713Z,42.3
2023-02-16T06:38:22.624Z,42.3
2023-02-16T06:43:41.283Z,42.7
2023-02-16T06:48:59.586Z,42
2023-02-16T06:54:18.052Z,42.6
2023-02-16T06:59:39.097Z,41.7
2023-02-16T07:04:57.389Z,42.2
2023-02-16T07:10:15.611Z,42.6
2023-02-16T07:15:35.171Z,41.7
2023-02-16T07:20:56.032Z,42.8
2023-02-16T07:26:14.826Z,42.4
2023-02-16T07:31:33.748Z,42
2023-02-16T07:36:51.944Z,42.2
2023-02-16T07:42:10.419Z,41.5
2023-02-16T07:47:29.288Z,41.8
2023-02-16T07:52:49.158Z,41.4
2023-02-16T07:58:07.982Z,42.1
2023-02-16T08:03:27.027Z,42
2023-02-16T08:08:45.667Z,42
2023-02-16T08:14:03.703Z,41.4
2023-02-16T08:19:22.548Z,41.3
2023-02-16T08:24:40.705Z,42
2023-02-16T08:29:59.188Z,41.8
2023-02-16T08:35:17.368Z,41.8
2023-02-16T08:40:35.611Z,41.2
2023-02-16T08:45:54.359Z,41.6
2023-02-16T08:51:13.052Z,41.5
2023-02-16T08:56:31.588Z,41.6
2023-02-16T09:01:50.158Z,41.4
2023-02-16T09:07:08.903Z,40.5
2023-02-16T09:12:27.516Z,41.1
2023-02-16T09:17:45.888Z,40.4
2023-02-16T09:23:04.635Z,41.2
2023-02-16T09:28:23.226Z,40.8
2023-02-16T09:33:41.693Z,40.6
2023-02-16T09:39:00.147Z,40.8
2023-02-16T09:44:18.398Z,40.2
2023-02-16T09:49:38.147Z,40.1
2023-02-16T09:54:56.398Z,39.9
2023-02-16T10:00:15.287Z,40
2023-02-16T10:05:33.752Z,40.6
2023-02-16T10:10:51.950Z,40
2023-02-16T10:16:10.782Z,40.6
2023-02-16T10:21:29.345Z,40.1
2023-02-16T10:26:47.646Z,40.4
2023-02-16T10:32:06.978Z,39.7
2023-02-16T10:37:25.841Z,40.2
2023-02-16T10:42:44.335Z,39.7
2023-02-16T10:48:03.168Z,40.2
2023-02-16T10:53:21.724Z,39.4
2023-02-16T10:58:39.974Z,39.5
2023-02-16T11:03:58.800Z,39.5
2023-02-16T11:09:17.400Z,39.7
2023-02-16T11:14:36.185Z,39.8
2023-02-16T11:19:55.026Z,39.7
2023-02-16T11:25:13.557Z,40.1
2023-02-16T11:30:17.754Z,40.1
2023-02-16T11:35:35.941Z,40
2023-02-16T11:40:54.700Z,40.1
2023-02-16T11:46:12.935Z,39.2
2023-02-16T11:51:31.469Z,40
2023-02-16T11:56:49.925Z,40.1
2023-02-16T12:02:08.454Z,39.6
2023-02-16T12:07:26.490Z,40.2
2023-02-16T12:12:47.858Z,40.1
2023-02-16T12:18:06.365Z,39.4
2023-02-16T12:23:25.179Z,39.6
2023-02-16T12:28:43.435Z,40.2
2023-02-16T12:34:01.647Z,40.1
2023-02-16T12:39:19.949Z,40.1
2023-02-16T12:44:38.140Z,39.7
2023-02-16T12:49:56.624Z,39.7
2023-02-16T12:55:15.456Z,40.3
2023-02-16T13:00:33.357Z,40.1
2023-02-16T13:05:52.136Z,40.3
2023-02-16T13:11:11.181Z,40.1
2023-02-16T13:16:31.672Z,40.6
2023-02-16T13:21:52.552Z,40.7
2023-02-16T13:27:10.866Z,40.4
2023-02-16T13:32:29.610Z,40.1
2023-02-16T13:37:48.437Z,40.1
2023-02-16T13:43:07.057Z,40.6
2023-02-16T13:48:24.986Z,40.6
2023-02-16T13:53:43.461Z,40.3
2023-02-16T13:59:02.021Z,40.3
2023-02-16T14:04:20.277Z,40.8
2023-02-16T14:09:39.080Z,40.7
2023-02-16T14:14:57.646Z,40.9
2023-02-16T14:20:16.119Z,40.3
2023-02-16T14:25:34.894Z,40.3
2023-02-16T14:30:53.656Z,41
2023-02-16T14:36:12.010Z,40.7
2023-02-16T14:41:30.763Z,40.6
2023-02-16T14:46:48.802Z,40.8
2023-02-16T14:52:07.250Z,40.2
2023-02-16T14:57:25.242Z,40.3
2023-02-16T15:02:44.185Z,41.1
2023-02-16T15:08:02.644Z,40.6
2023-02-16T15:13:21.152Z,40.5
2023-02-16T15:18:40.056Z,41.1
2023-02-16T15:23:58.260Z,41.2
2023-02-16T15:29:17.069Z,40.7
2023-02-16T15:34:35.906Z,40.4
2023-02-16T15:40:26.999Z,41
2023-02-16T15:45:45.621Z,40.4
2023-02-16T15:51:04.029Z,41.2
2023-02-16T15:56:22.521Z,40.4
2023-02-16T16:01:41.592Z,40.6
2023-02-16T16:06:59.862Z,41
2023-02-16T16:12:21.267Z,41
2023-02-16T16:17:40.038Z,41
2023-02-16T16:23:00.040Z,41.6
2023-02-16T16:28:18.519Z,41
2023-02-16T16:33:39.172Z,41.3
2023-02-16T16:38:57.502Z,41.5
2023-02-16T16:44:15.679Z,42
2023-02-16T16:49:34.215Z,41.5
2023-02-16T16:54:52.674Z,41.2
2023-02-16T17:00:11.030Z,42
2023-02-16T17:05:29.651Z,41.9
2023-02-16T17:10:47.967Z,41.5
2023-02-16T17:16:07.692Z,41.8
2023-02-16T17:21:26.575Z,41.4
2023-02-16T17:26:44.846Z,41.1
2023-02-16T17:32:03.869Z,41.6
2023-02-16T17:37:22.202Z,42
2023-02-16T17:42:40.573Z,41.9
2023-02-16T17:47:58.764Z,41.3
2023-02-16T17:53:17.537Z,41.4
2023-02-16T17:58:36.082Z,41.4
2023-02-16T18:03:54.739Z,42.6
2023-02-16T18:09:12.948Z,41.7
2023-02-16T18:14:31.591Z,42.3
2023-02-16T18:19:50.058Z,41.8
2023-02-16T18:25:08.662Z,41.9
2023-02-16T18:30:27.843Z,42.1
2023-02-16T18:35:57.982Z,42
2023-02-16T18:41:16.176Z,42.4
2023-02-16T18:46:35.089Z,41.8
2023-02-16T18:51:53.660Z,42.8
2023-02-16T18:57:12.362Z,42.1
2023-02-16T19:02:30.933Z,42.1
2023-02-16T19:07:49.125Z,42
2023-02-16T19:13:07.385Z,42.2
2023-02-16T19:18:25.650Z,42.6
2023-02-16T19:23:43.865Z,42.8
2023-02-16T19:29:02.488Z,41.9
2023-02-16T19:34:20.951Z,42.6
2023-02-16T19:39:39.547Z,42.9
2023-02-16T19:44:58.891Z,41.9
2023-02-16T19:50:17.774Z,41.6
2023-02-16T19:55:37.049Z,42.8
2023-02-16T20:00:55.550Z,41.7
2023-02-16T20:06:13.502Z,42.5
2023-02-16T20:11:31.973Z,42.5
2023-02-16T20:16:50.461Z,42.3
2023-02-16T20:22:08.760Z,42.2
2023-02-16T20:27:27.142Z,41.9
2023-02-16T20:32:47.776Z,41.9
2023-02-16T20:38:06.308Z,42.5
2023-02-16T20:43:24.498Z,42.5
2023-02-16T20:48:43.010Z,41.9
2023-02-16T20:54:01.514Z,42.4
2023-02-16T20:59:19.557Z,42.7
2023-02-16T21:04:37.776Z,41.9
2023-02-16T21:09:56.313Z,42.1
2023-02-16T21:15:14.767Z,41.7
2023-02-16T21:20:34.674Z,42.7
2023-02-16T21:25:53.158Z,42.6
2023-02-16T21:31:11.736Z,42.7
2023-02-16T21:36:30.544Z,42.2
2023-02-16T21:41:49.127Z,43
2023-02-16T21:47:07.700Z,42.8
2023-02-16T21:52:26.438Z,43.3
2023-02-16T21:57:44.816Z,42.7
2023-02-16T22:03:03.245Z,42.8
2023-02-16T22:08:22.130Z,42.6
2023-02-16T22:13:41.039Z,42.4
2023-02-16T22:18:59.816Z,42.7
2023-02-16T22:24:18.615Z,43.4
2023-02-16T22:29:37.480Z,43
2023-02-16T22:34:55.413Z,43.5
2023-02-16T22:40:13.924Z,43.6
2023-02-16T22:45:32.676Z,42.9
2023-02-16T22:50:50.982Z,43.2
2023-02-16T22:56:09.252Z,43
2023-02-16T23:01:27.958Z,43.7
2023-02-16T23:06:46.590Z,43
2023-02-16T23:12:05.087Z,44
2023-02-16T23:17:23.636Z,43.7
2023-02-16T23:22:42.128Z,43.1
2023-02-16T23:28:00.381Z,44
2023-02-16T23:33:18.373Z,44
2023-02-16T23:38:36.859Z,43.9
2023-02-16T23:43:55.078Z,43.8
2023-02-16T23:49:13.619Z,43.2
2023-02-16T23:54:32.079Z,45.3
2023-02-16T23:59:50.577Z,44.4
